Time;durP1;ratioP1;P1;durP2;ratioP2;P2;SDS_P1;SDS_P2;PMS_P1;PMS_P2;Temp;Humidity;BMP_temperature;BMP_pressure;BME280_temperature;BME280_humidity;BME280_pressure;Samples;Min_cycle;Max_cycle;Signal;HPM_P1;HPM_P2
2023/07/04 00:00:31;;;;;;;6.90;5.10;;;;;;;;;;4994162;28;21001;-83
2023/07/04 00:03:00;;;;;;;7.50;5.97;;;;;;;;;;4994133;28;20536;-84
2023/07/04 00:05:27;;;;;;;9.10;6.00;;;;;;;;;;4994160;28;20530;-83
2023/07/04 00:07:54;;;;;;;8.00;5.53;;;;;;;;;;4993997;28;20444;-85
2023/07/04 00:10:21;;;;;;;9.47;6.40;;;;;;;;;;4993995;28;20492;-84
2023/07/04 00:12:48;;;;;;;8.17;6.07;;;;;;;;;;4993993;28;20538;-84
2023/07/04 00:15:16;;;;;;;8.47;6.77;;;;;;;;;;4993864;28;20854;-84
2023/07/04 00:17:43;;;;;;;9.17;6.90;;;;;;;;;;4993572;28;20531;-84
2023/07/04 00:20:13;;;;;;;11.33;6.50;;;;;;;;;;4993634;28;20476;-84
2023/07/04 00:22:41;;;;;;;8.47;5.83;;;;;;;;;;4994105;28;20433;-84
2023/07/04 00:25:09;;;;;;;8.10;4.73;;;;;;;;;;4993935;28;20444;-85
2023/07/04 00:27:40;;;;;;;8.23;6.20;;;;;;;;;;4993468;28;20453;-84
2023/07/04 00:30:10;;;;;;;6.77;5.53;;;;;;;;;;4992992;28;20475;-84
2023/07/04 00:32:37;;;;;;;7.90;5.87;;;;;;;;;;4992850;28;20495;-84
2023/07/04 00:35:05;;;;;;;9.07;6.37;;;;;;;;;;4992916;28;21118;-84
2023/07/04 00:37:36;;;;;;;10.20;5.47;;;;;;;;;;4993014;28;20456;-84
2023/07/04 00:40:06;;;;;;;7.60;5.80;;;;;;;;;;4993010;28;20464;-84
2023/07/04 00:42:36;;;;;;;7.20;5.43;;;;;;;;;;4992645;28;20461;-84
2023/07/04 00:45:04;;;;;;;9.73;6.57;;;;;;;;;;4992486;28;20519;-85
2023/07/04 00:47:43;;;;;;;9.57;7.10;;;;;;;;;;4992857;28;20428;-84
2023/07/04 00:50:13;;;;;;;6.30;5.10;;;;;;;;;;4993197;28;20460;-85
2023/07/04 00:52:42;;;;;;;9.80;6.53;;;;;;;;;;4993241;28;20476;-84
2023/07/04 00:55:11;;;;;;;7.37;5.50;;;;;;;;;;4993265;28;20525;-84
2023/07/04 00:57:39;;;;;;;7.73;5.40;;;;;;;;;;4992711;28;20444;-84
2023/07/04 01:00:16;;;;;;;7.90;5.97;;;;;;;;;;4993151;28;20547;-84
2023/07/04 01:02:45;;;;;;;7.40;4.97;;;;;;;;;;4993087;28;20482;-84
2023/07/04 01:05:13;;;;;;;8.07;5.30;;;;;;;;;;4993177;28;20452;-84
2023/07/04 01:07:45;;;;;;;7.47;5.53;;;;;;;;;;4992862;28;20455;-84
2023/07/04 01:10:14;;;;;;;8.00;6.07;;;;;;;;;;4993068;28;20496;-84
2023/07/04 01:12:41;;;;;;;8.73;5.90;;;;;;;;;;4992842;28;20479;-84
2023/07/04 01:15:09;;;;;;;9.27;5.53;;;;;;;;;;4992920;28;20448;-85
2023/07/04 01:17:41;;;;;;;8.30;6.30;;;;;;;;;;4992523;28;20531;-84
2023/07/04 01:20:09;;;;;;;8.50;6.40;;;;;;;;;;4992857;28;20842;-84
2023/07/04 01:22:39;;;;;;;8.80;6.47;;;;;;;;;;4993003;28;20444;-84
2023/07/04 01:25:11;;;;;;;7.40;5.90;;;;;;;;;;4992532;28;20502;-83
2023/07/04 01:27:42;;;;;;;8.43;6.50;;;;;;;;;;4992612;28;20433;-84
2023/07/04 01:30:10;;;;;;;8.17;5.73;;;;;;;;;;4992829;28;20476;-84
2023/07/04 01:32:38;;;;;;;6.50;5.67;;;;;;;;;;4992658;28;20550;-85
2023/07/04 01:35:06;;;;;;;11.57;5.97;;;;;;;;;;4993031;28;20444;-84
2023/07/04 01:37:34;;;;;;;7.43;5.40;;;;;;;;;;4992641;28;20488;-84
2023/07/04 01:40:02;;;;;;;7.17;5.60;;;;;;;;;;4992376;28;20490;-85
2023/07/04 01:42:31;;;;;;;9.13;5.83;;;;;;;;;;4992676;28;20472;-84
2023/07/04 01:45:01;;;;;;;7.20;5.87;;;;;;;;;;4992588;28;20448;-84
2023/07/04 01:47:28;;;;;;;6.20;5.47;;;;;;;;;;4992035;28;20923;-84
2023/07/04 01:49:55;;;;;;;6.60;5.60;;;;;;;;;;4992322;28;20480;-84
2023/07/04 01:52:23;;;;;;;7.57;5.33;;;;;;;;;;4992285;28;20479;-84
2023/07/04 01:54:51;;;;;;;7.73;5.60;;;;;;;;;;4992879;28;20448;-84
2023/07/04 01:57:18;;;;;;;7.87;5.13;;;;;;;;;;4991440;28;20480;-84
2023/07/04 01:59:45;;;;;;;8.40;5.83;;;;;;;;;;4992403;28;20452;-84
2023/07/04 02:02:14;;;;;;;8.10;5.90;;;;;;;;;;4992796;28;20448;-84
2023/07/04 02:04:41;;;;;;;9.17;6.40;;;;;;;;;;4992393;28;20858;-84
2023/07/04 02:07:11;;;;;;;7.53;6.03;;;;;;;;;;4992034;28;20495;-84
2023/07/04 02:09:38;;;;;;;7.53;5.10;;;;;;;;;;4992020;28;20506;-84
2023/07/04 02:12:06;;;;;;;9.40;6.00;;;;;;;;;;4991631;28;20502;-85
2023/07/04 02:14:33;;;;;;;8.23;5.53;;;;;;;;;;4991519;28;20523;-85
2023/07/04 02:17:00;;;;;;;6.47;5.03;;;;;;;;;;4992355;28;20432;-84
2023/07/04 02:19:29;;;;;;;6.73;5.43;;;;;;;;;;4992712;28;21012;-84
2023/07/04 02:21:56;;;;;;;7.47;5.43;;;;;;;;;;4992811;28;20990;-85
2023/07/04 02:24:23;;;;;;;8.37;5.70;;;;;;;;;;4992632;28;20927;-84
2023/07/04 02:26:51;;;;;;;8.20;5.53;;;;;;;;;;4992240;28;20503;-84
2023/07/04 02:29:18;;;;;;;7.23;5.57;;;;;;;;;;4992897;28;20480;-85
2023/07/04 02:31:45;;;;;;;8.80;5.50;;;;;;;;;;4992735;28;20555;-85
2023/07/04 02:34:12;;;;;;;8.13;6.30;;;;;;;;;;4992241;28;20519;-84
2023/07/04 02:36:41;;;;;;;8.67;6.00;;;;;;;;;;4992245;28;20511;-84
2023/07/04 02:39:09;;;;;;;7.70;6.27;;;;;;;;;;4991972;28;20947;-85
2023/07/04 02:41:36;;;;;;;8.50;5.80;;;;;;;;;;4992474;28;21018;-86
2023/07/04 02:44:03;;;;;;;8.17;5.63;;;;;;;;;;4991924;28;20536;-85
2023/07/04 02:46:30;;;;;;;7.60;5.07;;;;;;;;;;4991913;28;20492;-85
2023/07/04 02:48:57;;;;;;;11.30;7.10;;;;;;;;;;4992256;28;20452;-84
2023/07/04 02:51:25;;;;;;;6.70;5.73;;;;;;;;;;4991819;28;20508;-84
2023/07/04 02:53:53;;;;;;;8.13;5.53;;;;;;;;;;4992244;28;20570;-84
2023/07/04 02:56:21;;;;;;;8.10;5.03;;;;;;;;;;4991736;28;20527;-84
2023/07/04 02:58:48;;;;;;;8.13;5.73;;;;;;;;;;4992528;28;20537;-85
2023/07/04 03:01:15;;;;;;;9.53;6.20;;;;;;;;;;4992117;28;20468;-85
2023/07/04 03:03:42;;;;;;;9.87;7.50;;;;;;;;;;4992291;28;21019;-85
2023/07/04 03:06:10;;;;;;;7.20;5.43;;;;;;;;;;4992502;28;20432;-84
2023/07/04 03:08:37;;;;;;;6.83;4.97;;;;;;;;;;4993860;28;20447;-85
2023/07/04 03:11:06;;;;;;;7.80;5.43;;;;;;;;;;4995962;28;20554;-85
2023/07/04 03:13:33;;;;;;;9.43;5.47;;;;;;;;;;5006781;28;20595;-83
2023/07/04 03:16:00;;;;;;;7.57;5.50;;;;;;;;;;4995442;28;20486;-85
2023/07/04 03:18:28;;;;;;;7.53;5.93;;;;;;;;;;4994695;28;20440;-85
2023/07/04 03:20:55;;;;;;;8.40;6.10;;;;;;;;;;4994876;28;20530;-84
2023/07/04 03:23:22;;;;;;;6.50;5.40;;;;;;;;;;4995269;28;20530;-84
2023/07/04 03:25:50;;;;;;;7.00;4.57;;;;;;;;;;4994863;28;20574;-85
2023/07/04 03:28:18;;;;;;;7.30;5.33;;;;;;;;;;4994567;28;20538;-85
2023/07/04 03:30:46;;;;;;;7.40;5.70;;;;;;;;;;4994932;28;20555;-85
2023/07/04 03:33:13;;;;;;;7.73;5.13;;;;;;;;;;4994825;28;20563;-84
2023/07/04 03:35:40;;;;;;;6.83;4.90;;;;;;;;;;4994779;28;20487;-84
2023/07/04 03:38:07;;;;;;;8.43;5.53;;;;;;;;;;4994886;28;20472;-84
2023/07/04 03:40:35;;;;;;;7.60;5.80;;;;;;;;;;4994653;28;20904;-84
2023/07/04 03:43:02;;;;;;;7.37;5.37;;;;;;;;;;4994547;28;20561;-85
2023/07/04 03:45:30;;;;;;;7.10;6.20;;;;;;;;;;4994256;28;20477;-84
2023/07/04 03:47:58;;;;;;;10.10;6.77;;;;;;;;;;4994288;28;20437;-84
2023/07/04 03:50:25;;;;;;;8.50;5.17;;;;;;;;;;4994223;28;20555;-85
2023/07/04 03:52:52;;;;;;;8.60;5.47;;;;;;;;;;4995362;28;20471;-84
2023/07/04 03:55:19;;;;;;;8.27;5.20;;;;;;;;;;4994200;28;21029;-84
2023/07/04 03:57:48;;;;;;;8.10;5.53;;;;;;;;;;4993636;28;20535;-84
2023/07/04 04:00:15;;;;;;;7.70;5.50;;;;;;;;;;4994218;28;20472;-85
2023/07/04 04:02:43;;;;;;;8.13;5.57;;;;;;;;;;4994206;28;20958;-85
2023/07/04 04:05:11;;;;;;;6.40;4.90;;;;;;;;;;4994390;28;20538;-84
2023/07/04 04:07:38;;;;;;;8.57;6.07;;;;;;;;;;4994126;28;20825;-85
2023/07/04 04:10:06;;;;;;;6.87;5.57;;;;;;;;;;4994048;28;20970;-84
2023/07/04 04:12:35;;;;;;;7.67;5.83;;;;;;;;;;4994011;28;20514;-84
2023/07/04 04:15:02;;;;;;;6.17;4.20;;;;;;;;;;4993679;28;20567;-85
2023/07/04 04:17:30;;;;;;;6.37;5.20;;;;;;;;;;4993530;28;20452;-84
2023/07/04 04:19:58;;;;;;;5.20;4.60;;;;;;;;;;4993814;28;20444;-84
2023/07/04 04:22:26;;;;;;;8.53;5.77;;;;;;;;;;4994059;28;20551;-85
2023/07/04 04:24:53;;;;;;;7.70;5.20;;;;;;;;;;4993979;28;20444;-85
2023/07/04 04:27:20;;;;;;;7.53;5.73;;;;;;;;;;4993694;28;20440;-84
2023/07/04 04:29:47;;;;;;;7.13;5.80;;;;;;;;;;4993941;28;20531;-85
2023/07/04 04:32:15;;;;;;;6.43;5.20;;;;;;;;;;4993681;28;20487;-85
2023/07/04 04:34:42;;;;;;;7.80;5.80;;;;;;;;;;4994045;28;20492;-85
2023/07/04 04:37:11;;;;;;;7.47;5.33;;;;;;;;;;4994087;28;20447;-84
2023/07/04 04:39:38;;;;;;;7.83;5.60;;;;;;;;;;4993907;28;20547;-84
2023/07/04 04:42:14;;;;;;;8.57;6.37;;;;;;;;;;4993499;28;20472;-85
2023/07/04 04:44:41;;;;;;;7.43;5.27;;;;;;;;;;4994027;28;20472;-85
2023/07/04 04:47:08;;;;;;;10.40;6.10;;;;;;;;;;4993645;28;20453;-85
2023/07/04 04:49:36;;;;;;;8.00;5.60;;;;;;;;;;4993713;28;20479;-85
2023/07/04 04:52:03;;;;;;;7.90;5.87;;;;;;;;;;4993701;28;20518;-85
2023/07/04 04:54:33;;;;;;;7.10;5.27;;;;;;;;;;4993674;28;20566;-84
2023/07/04 04:57:00;;;;;;;9.87;5.47;;;;;;;;;;4992393;28;20440;-85
2023/07/04 04:59:27;;;;;;;7.90;6.00;;;;;;;;;;4992868;28;20539;-85
2023/07/04 05:01:55;;;;;;;7.17;5.37;;;;;;;;;;4993199;28;20550;-85
2023/07/04 05:04:23;;;;;;;8.93;5.57;;;;;;;;;;4993404;28;20445;-87
2023/07/04 05:06:51;;;;;;;8.50;5.53;;;;;;;;;;4992770;28;20994;-85
2023/07/04 05:09:18;;;;;;;6.87;4.90;;;;;;;;;;4993141;28;20476;-85
2023/07/04 05:11:47;;;;;;;7.10;5.20;;;;;;;;;;4992704;28;20464;-84
2023/07/04 05:14:15;;;;;;;6.47;5.10;;;;;;;;;;4992646;28;20479;-84
2023/07/04 05:16:42;;;;;;;6.57;5.33;;;;;;;;;;4991308;28;20475;-85
2023/07/04 05:19:09;;;;;;;9.23;6.27;;;;;;;;;;4990766;28;20532;-84
2023/07/04 05:21:36;;;;;;;6.67;5.23;;;;;;;;;;4989715;28;20472;-84
2023/07/04 05:24:04;;;;;;;7.00;4.97;;;;;;;;;;4986913;28;20507;-84
2023/07/04 05:26:31;;;;;;;7.93;5.00;;;;;;;;;;4983913;28;20544;-84
2023/07/04 05:29:02;;;;;;;8.70;6.40;;;;;;;;;;4992293;28;20448;-84
2023/07/04 05:31:30;;;;;;;8.03;5.50;;;;;;;;;;4974258;28;20504;-85
2023/07/04 05:33:58;;;;;;;7.10;5.13;;;;;;;;;;4985514;28;20508;-86
2023/07/04 05:36:26;;;;;;;6.63;5.10;;;;;;;;;;4991722;28;20444;-86
2023/07/04 05:38:54;;;;;;;7.60;5.47;;;;;;;;;;4992374;28;20456;-84
2023/07/04 05:41:22;;;;;;;10.00;7.50;;;;;;;;;;4992420;28;20491;-84
2023/07/04 05:43:50;;;;;;;11.00;8.57;;;;;;;;;;4992282;28;20448;-85
2023/07/04 05:46:19;;;;;;;9.00;6.57;;;;;;;;;;4991963;28;20468;-84
2023/07/04 05:48:47;;;;;;;11.60;6.10;;;;;;;;;;4992104;28;20456;-84
2023/07/04 05:51:15;;;;;;;7.70;5.67;;;;;;;;;;4992200;28;20476;-83
2023/07/04 05:53:43;;;;;;;10.13;5.43;;;;;;;;;;4991902;28;20591;-82
2023/07/04 05:56:11;;;;;;;8.57;5.40;;;;;;;;;;4990754;28;20483;-85
2023/07/04 05:58:39;;;;;;;9.10;5.10;;;;;;;;;;4991543;28;20444;-84
2023/07/04 06:01:08;;;;;;;7.00;4.90;;;;;;;;;;4990904;28;20464;-84
2023/07/04 06:03:36;;;;;;;7.53;5.47;;;;;;;;;;4991730;28;20515;-85
2023/07/04 06:06:04;;;;;;;6.90;5.10;;;;;;;;;;4991425;28;20440;-84
2023/07/04 06:08:32;;;;;;;8.77;5.83;;;;;;;;;;4991373;28;20471;-84
2023/07/04 06:11:00;;;;;;;8.37;5.40;;;;;;;;;;4991593;28;20461;-84
2023/07/04 06:13:27;;;;;;;8.17;5.80;;;;;;;;;;4991703;28;20519;-84
2023/07/04 06:15:54;;;;;;;7.20;5.63;;;;;;;;;;4992114;28;20884;-84
2023/07/04 06:18:21;;;;;;;7.30;5.63;;;;;;;;;;4991309;28;20966;-85
2023/07/04 06:20:50;;;;;;;8.57;5.63;;;;;;;;;;4991522;28;20994;-84
2023/07/04 06:23:20;;;;;;;6.70;5.20;;;;;;;;;;4991272;28;20483;-84
2023/07/04 06:25:47;;;;;;;9.07;5.60;;;;;;;;;;4991612;28;20444;-83
2023/07/04 06:28:15;;;;;;;10.93;5.40;;;;;;;;;;4991680;28;20531;-84
2023/07/04 06:30:42;;;;;;;6.23;4.70;;;;;;;;;;4991094;28;21041;-84
2023/07/04 06:33:09;;;;;;;8.27;5.10;;;;;;;;;;4991122;28;20539;-84
2023/07/04 06:35:42;;;;;;;7.30;5.97;;;;;;;;;;4991253;28;20511;-84
2023/07/04 06:38:11;;;;;;;8.70;6.60;;;;;;;;;;4991120;28;20428;-84
2023/07/04 06:40:38;;;;;;;7.40;5.77;;;;;;;;;;4991388;28;20495;-84
2023/07/04 06:43:06;;;;;;;7.37;5.47;;;;;;;;;;4994246;28;20447;-85
2023/07/04 06:45:33;;;;;;;7.77;5.97;;;;;;;;;;4995097;28;20482;-84
2023/07/04 06:48:01;;;;;;;8.90;5.43;;;;;;;;;;4994830;28;20770;-83
2023/07/04 06:50:29;;;;;;;7.20;6.03;;;;;;;;;;5006430;28;20468;-84
2023/07/04 06:52:56;;;;;;;8.30;5.70;;;;;;;;;;5006626;28;20527;-84
2023/07/04 06:55:25;;;;;;;8.53;5.60;;;;;;;;;;4994984;28;20515;-85
2023/07/04 06:57:52;;;;;;;7.90;5.60;;;;;;;;;;4994511;28;20908;-85
2023/07/04 07:00:20;;;;;;;7.70;5.93;;;;;;;;;;4995197;28;21009;-86
2023/07/04 07:02:50;;;;;;;9.00;5.97;;;;;;;;;;4994698;28;20433;-85
2023/07/04 07:05:18;;;;;;;8.05;6.13;;;;;;;;;;4994644;28;20459;-86
2023/07/04 07:07:47;;;;;;;7.93;6.10;;;;;;;;;;4994336;28;20248;-86
2023/07/04 07:10:14;;;;;;;7.00;5.87;;;;;;;;;;4994655;28;20522;-86
2023/07/04 07:12:43;;;;;;;7.20;5.60;;;;;;;;;;4994446;28;20527;-85
2023/07/04 07:15:10;;;;;;;8.10;5.00;;;;;;;;;;4994235;28;20569;-86
2023/07/04 07:17:38;;;;;;;9.83;6.00;;;;;;;;;;4994562;28;20872;-86
2023/07/04 07:20:06;;;;;;;10.97;6.43;;;;;;;;;;4994049;28;20437;-86
2023/07/04 07:22:33;;;;;;;9.87;6.00;;;;;;;;;;4994260;28;20475;-86
2023/07/04 07:25:00;;;;;;;9.40;5.87;;;;;;;;;;4994111;28;20476;-85
2023/07/04 07:27:27;;;;;;;9.07;5.90;;;;;;;;;;4993628;28;20452;-86
2023/07/04 07:29:56;;;;;;;8.33;6.33;;;;;;;;;;4994286;28;20538;-86
2023/07/04 07:32:23;;;;;;;9.87;6.60;;;;;;;;;;4993733;28;21069;-87
2023/07/04 07:34:50;;;;;;;8.60;6.20;;;;;;;;;;4994041;28;20690;-86
2023/07/04 07:37:18;;;;;;;9.43;6.60;;;;;;;;;;4993923;28;20449;-86
2023/07/04 07:39:45;;;;;;;14.47;6.67;;;;;;;;;;4993961;28;20895;-86
2023/07/04 07:42:12;;;;;;;7.93;5.87;;;;;;;;;;4993764;28;21075;-86
2023/07/04 07:44:40;;;;;;;9.17;6.17;;;;;;;;;;4993959;28;20973;-86
2023/07/04 07:47:10;;;;;;;7.90;6.80;;;;;;;;;;4993660;28;20526;-86
2023/07/04 07:49:37;;;;;;;10.03;7.03;;;;;;;;;;4992879;28;20456;-86
2023/07/04 07:52:05;;;;;;;14.20;8.73;;;;;;;;;;4993429;28;20935;-87
2023/07/04 07:54:32;;;;;;;7.67;6.30;;;;;;;;;;4992880;28;20567;-86
2023/07/04 07:56:59;;;;;;;9.57;6.33;;;;;;;;;;4992529;28;20950;-86
2023/07/04 07:59:27;;;;;;;10.60;6.60;;;;;;;;;;4993586;28;20543;-86
2023/07/04 08:01:55;;;;;;;8.77;6.53;;;;;;;;;;4993285;28;20766;-86
2023/07/04 08:04:25;;;;;;;8.70;6.77;;;;;;;;;;4993478;28;20440;-86
2023/07/04 08:06:52;;;;;;;5.90;5.20;;;;;;;;;;4992957;28;20815;-86
2023/07/04 08:09:20;;;;;;;8.87;6.83;;;;;;;;;;4993385;28;20954;-86
2023/07/04 08:11:48;;;;;;;10.77;6.80;;;;;;;;;;4993193;28;20868;-86
2023/07/04 08:14:16;;;;;;;9.73;6.80;;;;;;;;;;4993201;28;20931;-86
2023/07/04 08:16:44;;;;;;;6.67;5.30;;;;;;;;;;4992971;28;20523;-86
2023/07/04 08:19:12;;;;;;;7.63;6.43;;;;;;;;;;4993347;28;20472;-86
2023/07/04 08:21:40;;;;;;;7.93;6.03;;;;;;;;;;4993525;28;20468;-86
2023/07/04 08:24:10;;;;;;;10.80;6.37;;;;;;;;;;4992854;28;20531;-86
2023/07/04 08:26:39;;;;;;;9.20;6.57;;;;;;;;;;4992956;28;20486;-86
2023/07/04 08:29:07;;;;;;;7.13;5.77;;;;;;;;;;4993422;28;20832;-85
2023/07/04 08:31:34;;;;;;;8.33;5.30;;;;;;;;;;4991652;28;21021;-85
2023/07/04 08:34:01;;;;;;;10.50;5.90;;;;;;;;;;4992899;28;20460;-86
2023/07/04 08:36:29;;;;;;;8.90;6.13;;;;;;;;;;4992659;28;20582;-86
2023/07/04 08:38:57;;;;;;;6.73;5.53;;;;;;;;;;4992565;28;20448;-86
2023/07/04 08:41:34;;;;;;;7.67;5.87;;;;;;;;;;4992521;28;20555;-86
2023/07/04 08:44:03;;;;;;;8.27;5.70;;;;;;;;;;4992591;28;20522;-86
2023/07/04 08:46:35;;;;;;;7.20;5.33;;;;;;;;;;4991892;28;20444;-86
2023/07/04 08:49:03;;;;;;;5.87;5.27;;;;;;;;;;4991785;28;20539;-86
2023/07/04 08:51:33;;;;;;;7.57;5.80;;;;;;;;;;4991527;28;20556;-86
2023/07/04 08:54:04;;;;;;;10.87;7.03;;;;;;;;;;4991736;28;20487;-86
2023/07/04 08:56:34;;;;;;;7.57;6.20;;;;;;;;;;4991187;28;20924;-86
2023/07/04 08:59:05;;;;;;;6.90;5.20;;;;;;;;;;4992605;28;20893;-85
2023/07/04 09:01:36;;;;;;;6.23;5.20;;;;;;;;;;4992459;28;20696;-86
2023/07/04 09:04:06;;;;;;;7.20;6.50;;;;;;;;;;4992022;28;20547;-86
2023/07/04 09:06:35;;;;;;;7.97;5.80;;;;;;;;;;4991613;28;20480;-86
2023/07/04 09:09:11;;;;;;;8.90;5.70;;;;;;;;;;4992049;28;20934;-86
2023/07/04 09:11:38;;;;;;;9.37;6.20;;;;;;;;;;4992040;28;20547;-86
2023/07/04 09:14:08;;;;;;;11.30;6.33;;;;;;;;;;4992043;28;20897;-85
2023/07/04 09:16:38;;;;;;;8.13;6.37;;;;;;;;;;4991826;28;20578;-84
2023/07/04 09:19:06;;;;;;;7.97;5.83;;;;;;;;;;4992034;28;20503;-84
2023/07/04 09:21:34;;;;;;;8.13;5.77;;;;;;;;;;4992036;28;20568;-85
2023/07/04 09:24:02;;;;;;;9.97;6.00;;;;;;;;;;4991984;28;20530;-85
2023/07/04 09:26:33;;;;;;;7.37;5.13;;;;;;;;;;4991434;28;20527;-85
2023/07/04 09:29:01;;;;;;;7.60;5.67;;;;;;;;;;4992458;28;20444;-85
2023/07/04 09:31:30;;;;;;;8.23;5.93;;;;;;;;;;4991625;28;20914;-84
2023/07/04 09:33:57;;;;;;;8.33;6.33;;;;;;;;;;4991853;28;21010;-86
2023/07/04 09:36:31;;;;;;;7.50;5.97;;;;;;;;;;4991356;28;21112;-86
2023/07/04 09:39:00;;;;;;;7.57;6.47;;;;;;;;;;4992027;28;20871;-86
2023/07/04 09:41:31;;;;;;;9.43;6.57;;;;;;;;;;4991802;28;20472;-86
2023/07/04 09:44:12;;;;;;;10.67;6.63;;;;;;;;;;4991874;28;20437;-86
2023/07/04 09:46:40;;;;;;;8.53;6.57;;;;;;;;;;4991704;28;20444;-86
2023/07/04 09:49:20;;;;;;;6.30;5.43;;;;;;;;;;4991878;28;20531;-85
2023/07/04 09:51:58;;;;;;;9.07;6.60;;;;;;;;;;4991422;28;21064;-86
2023/07/04 09:54:25;;;;;;;8.60;6.10;;;;;;;;;;4991682;28;20483;-86
2023/07/04 09:56:53;;;;;;;7.40;6.17;;;;;;;;;;4991155;28;20570;-85
2023/07/04 09:59:23;;;;;;;7.23;5.40;;;;;;;;;;4991813;28;20471;-85
2023/07/04 10:01:51;;;;;;;7.70;6.17;;;;;;;;;;4991513;28;20510;-86
2023/07/04 10:04:25;;;;;;;8.37;6.77;;;;;;;;;;4990964;28;20453;-86
2023/07/04 10:06:54;;;;;;;9.07;6.73;;;;;;;;;;4988894;28;20463;-85
2023/07/04 10:09:21;;;;;;;7.77;6.07;;;;;;;;;;4991261;28;20535;-85
2023/07/04 10:11:50;;;;;;;9.90;7.50;;;;;;;;;;4991386;28;20463;-85
2023/07/04 10:14:18;;;;;;;7.90;6.33;;;;;;;;;;4991645;28;20555;-85
2023/07/04 10:16:48;;;;;;;6.60;5.80;;;;;;;;;;4991942;28;20570;-85
2023/07/04 10:19:16;;;;;;;7.83;5.80;;;;;;;;;;4995865;28;20458;-85
2023/07/04 10:21:45;;;;;;;10.60;6.30;;;;;;;;;;4994958;28;20839;-85
2023/07/04 10:24:15;;;;;;;8.23;6.10;;;;;;;;;;5017172;23;20451;-56
2023/07/04 10:26:42;;;;;;;8.10;5.50;;;;;;;;;;5014481;28;20530;-56
2023/07/04 10:29:10;;;;;;;7.33;5.23;;;;;;;;;;5016792;28;21002;-56
2023/07/04 10:31:37;;;;;;;7.27;4.73;;;;;;;;;;5009394;28;20464;-56
2023/07/04 10:34:08;;;;;;;7.67;4.97;;;;;;;;;;5003187;28;20541;-56
2023/07/04 10:36:37;;;;;;;8.20;5.53;;;;;;;;;;5003756;28;20471;-56
2023/07/04 10:39:06;;;;;;;7.13;5.20;;;;;;;;;;5039949;23;20495;-85
2023/07/04 10:41:36;;;;;;;10.07;4.43;;;;;;;;;;5035214;28;20922;-84
2023/07/04 10:44:05;;;;;;;5.57;4.27;;;;;;;;;;5022554;28;20472;-84
2023/07/04 10:46:34;;;;;;;6.60;5.17;;;;;;;;;;5001490;28;20436;-84
2023/07/04 10:49:04;;;;;;;9.03;5.80;;;;;;;;;;4999282;28;20475;-82
2023/07/04 10:51:34;;;;;;;7.83;4.77;;;;;;;;;;4995633;28;20502;-84
2023/07/04 10:54:01;;;;;;;6.30;4.63;;;;;;;;;;4996311;28;20503;-82
2023/07/04 10:56:31;;;;;;;8.33;5.90;;;;;;;;;;4995172;28;20523;-83
2023/07/04 10:59:04;;;;;;;7.70;5.57;;;;;;;;;;4994668;28;20432;-82
2023/07/04 11:01:35;;;;;;;6.00;4.90;;;;;;;;;;4994998;28;20459;-83
2023/07/04 11:04:04;;;;;;;6.53;4.53;;;;;;;;;;4994558;28;20494;-83
2023/07/04 11:06:37;;;;;;;6.30;4.50;;;;;;;;;;4994704;28;20440;-82
2023/07/04 11:09:06;;;;;;;5.73;4.37;;;;;;;;;;4995304;28;20448;-84
2023/07/04 11:11:34;;;;;;;9.47;5.53;;;;;;;;;;4995416;28;20487;-83
2023/07/04 11:14:06;;;;;;;8.87;6.03;;;;;;;;;;5003063;28;20459;-85
2023/07/04 11:16:34;;;;;;;6.30;4.70;;;;;;;;;;4999605;28;20468;-85
2023/07/04 11:19:04;;;;;;;5.17;4.27;;;;;;;;;;4998088;28;20484;-86
2023/07/04 11:21:33;;;;;;;6.03;3.70;;;;;;;;;;4997759;28;20504;-83
2023/07/04 11:24:11;;;;;;;7.30;4.80;;;;;;;;;;4998368;28;20465;-85
2023/07/04 11:26:49;;;;;;;6.53;4.10;;;;;;;;;;4998097;28;20453;-83
2023/07/04 11:29:18;;;;;;;6.23;5.07;;;;;;;;;;4996828;28;20462;-82
2023/07/04 11:32:04;;;;;;;6.50;5.00;;;;;;;;;;4996513;28;20494;-84
2023/07/04 11:34:43;;;;;;;7.23;5.27;;;;;;;;;;4998618;28;20499;-82
2023/07/04 11:37:11;;;;;;;6.10;4.97;;;;;;;;;;4997228;28;20483;-83
2023/07/04 11:39:40;;;;;;;7.33;4.40;;;;;;;;;;4997217;28;20425;-82
2023/07/04 11:42:15;;;;;;;5.83;4.73;;;;;;;;;;4997659;28;20428;-82
2023/07/04 11:44:47;;;;;;;6.40;4.67;;;;;;;;;;4996134;28;20468;-83
2023/07/04 11:47:18;;;;;;;7.50;5.17;;;;;;;;;;4995664;28;20483;-83
2023/07/04 11:49:55;;;;;;;7.10;4.00;;;;;;;;;;4997513;28;20444;-84
2023/07/04 11:52:26;;;;;;;8.37;5.57;;;;;;;;;;4997868;28;20939;-85
2023/07/04 11:54:57;;;;;;;7.93;5.63;;;;;;;;;;4997155;28;20453;-83
2023/07/04 11:57:24;;;;;;;6.57;4.70;;;;;;;;;;4997332;28;20572;-83
2023/07/04 11:59:52;;;;;;;7.77;4.80;;;;;;;;;;4997740;28;20515;-83
2023/07/04 12:02:26;;;;;;;5.03;4.20;;;;;;;;;;4997819;28;20432;-83
2023/07/04 12:04:54;;;;;;;7.40;5.10;;;;;;;;;;4997927;28;20464;-84
2023/07/04 12:07:27;;;;;;;5.87;4.63;;;;;;;;;;4996881;28;20873;-83
2023/07/04 12:09:59;;;;;;;7.27;4.80;;;;;;;;;;4997792;28;20487;-83
2023/07/04 12:12:28;;;;;;;7.10;4.77;;;;;;;;;;4997487;28;20452;-84
2023/07/04 12:15:00;;;;;;;6.70;4.13;;;;;;;;;;4995844;28;20527;-83
2023/07/04 12:17:27;;;;;;;5.60;4.23;;;;;;;;;;4996179;28;20496;-83
2023/07/04 12:19:56;;;;;;;5.90;4.23;;;;;;;;;;4996459;28;20440;-83
2023/07/04 12:22:24;;;;;;;5.77;4.87;;;;;;;;;;4997449;28;20531;-83
2023/07/04 12:24:52;;;;;;;5.80;4.10;;;;;;;;;;4996621;28;20531;-83
2023/07/04 12:27:27;;;;;;;7.00;4.87;;;;;;;;;;4995848;28;21026;-85
2023/07/04 12:29:55;;;;;;;5.63;4.47;;;;;;;;;;4996815;28;20880;-84
2023/07/04 12:32:23;;;;;;;6.03;4.03;;;;;;;;;;4994952;28;20476;-86
2023/07/04 12:34:53;;;;;;;5.73;4.63;;;;;;;;;;4995170;28;20453;-85
2023/07/04 12:37:27;;;;;;;5.77;4.43;;;;;;;;;;4995118;28;20480;-84
2023/07/04 12:39:54;;;;;;;8.13;5.00;;;;;;;;;;4996578;28;20961;-83
2023/07/04 12:42:31;;;;;;;5.93;4.80;;;;;;;;;;4995504;28;20890;-84
2023/07/04 12:44:59;;;;;;;6.17;4.40;;;;;;;;;;4994773;28;20468;-83
2023/07/04 12:47:27;;;;;;;6.30;4.70;;;;;;;;;;4995346;28;20472;-83
2023/07/04 12:49:55;;;;;;;8.77;5.00;;;;;;;;;;5010827;28;20432;-86
2023/07/04 12:52:26;;;;;;;7.77;4.80;;;;;;;;;;5001525;28;20472;-83
2023/07/04 12:54:53;;;;;;;7.00;5.03;;;;;;;;;;4997030;28;20463;-83
2023/07/04 12:57:23;;;;;;;6.97;4.70;;;;;;;;;;4995749;28;20468;-83
2023/07/04 12:59:53;;;;;;;5.83;4.33;;;;;;;;;;4995213;28;20459;-84
2023/07/04 13:02:23;;;;;;;6.70;4.80;;;;;;;;;;4994870;28;20882;-85
2023/07/04 13:04:51;;;;;;;7.13;4.63;;;;;;;;;;4994388;28;20586;-84
2023/07/04 13:07:21;;;;;;;6.20;4.63;;;;;;;;;;4993028;28;20445;-83
2023/07/04 13:09:49;;;;;;;5.40;4.70;;;;;;;;;;4993343;28;20452;-84
2023/07/04 13:12:24;;;;;;;5.67;4.40;;;;;;;;;;4994314;28;20903;-85
2023/07/04 13:15:04;;;;;;;6.77;4.60;;;;;;;;;;4993416;28;20966;-84
2023/07/04 13:17:31;;;;;;;6.33;5.00;;;;;;;;;;4993760;28;20524;-84
2023/07/04 13:19:59;;;;;;;8.27;5.00;;;;;;;;;;4994222;28;20448;-82
2023/07/04 13:22:27;;;;;;;6.10;4.80;;;;;;;;;;4994243;28;20491;-85
2023/07/04 13:24:54;;;;;;;9.00;5.30;;;;;;;;;;4993578;28;20492;-83
2023/07/04 13:27:24;;;;;;;7.30;4.90;;;;;;;;;;4993742;28;20890;-83
2023/07/04 13:29:54;;;;;;;7.70;4.97;;;;;;;;;;4994157;28;20536;-85
2023/07/04 13:32:22;;;;;;;5.67;4.00;;;;;;;;;;4993986;28;20495;-85
2023/07/04 13:34:51;;;;;;;6.33;4.90;;;;;;;;;;4993844;28;20469;-83
2023/07/04 13:37:19;;;;;;;6.03;4.50;;;;;;;;;;4992311;28;20503;-83
2023/07/04 13:39:47;;;;;;;6.47;4.03;;;;;;;;;;4994016;28;20483;-85
2023/07/04 13:42:14;;;;;;;5.67;4.60;;;;;;;;;;4993684;28;20452;-86
2023/07/04 13:44:41;;;;;;;8.80;4.70;;;;;;;;;;4994448;28;20527;-84
2023/07/04 13:47:13;;;;;;;8.50;3.70;;;;;;;;;;4994789;28;20479;-83
2023/07/04 13:49:42;;;;;;;5.20;4.27;;;;;;;;;;5001013;28;20457;-82
2023/07/04 13:52:10;;;;;;;6.10;2.67;;;;;;;;;;4997765;28;20487;-78
2023/07/04 13:54:38;;;;;;;7.20;4.33;;;;;;;;;;5002151;28;20464;-78
2023/07/04 13:57:05;;;;;;;5.97;3.43;;;;;;;;;;4998416;28;20507;-77
2023/07/04 13:59:32;;;;;;;6.20;3.50;;;;;;;;;;4994816;28;20906;-78
2023/07/04 14:02:00;;;;;;;4.10;2.97;;;;;;;;;;4999812;28;20480;-78
2023/07/04 14:04:28;;;;;;;5.07;3.30;;;;;;;;;;5001687;28;20966;-79
2023/07/04 14:06:56;;;;;;;5.83;3.83;;;;;;;;;;4994898;28;20939;-77
2023/07/04 14:09:23;;;;;;;3.60;2.70;;;;;;;;;;4992757;28;21057;-78
2023/07/04 14:11:50;;;;;;;4.93;3.60;;;;;;;;;;5002048;28;20437;-78
2023/07/04 14:14:18;;;;;;;7.15;3.92;;;;;;;;;;5013394;28;20424;-77
2023/07/04 14:16:45;;;;;;;8.00;4.60;;;;;;;;;;5001889;28;20220;-80
2023/07/04 14:19:12;;;;;;;8.17;4.43;;;;;;;;;;4993166;28;20526;-82
2023/07/04 14:21:41;;;;;;;8.73;4.80;;;;;;;;;;4994862;28;20869;-81
2023/07/04 14:24:08;;;;;;;5.03;3.67;;;;;;;;;;5004055;28;20487;-78
2023/07/04 14:26:35;;;;;;;4.93;4.40;;;;;;;;;;5016727;28;20440;-78
2023/07/04 14:29:03;;;;;;;8.70;4.47;;;;;;;;;;5016442;28;20436;-78
2023/07/04 14:31:31;;;;;;;5.63;4.53;;;;;;;;;;5016579;28;20450;-79
2023/07/04 14:33:58;;;;;;;6.80;4.50;;;;;;;;;;5016847;28;20432;-78
2023/07/04 14:36:25;;;;;;;8.40;4.47;;;;;;;;;;5016406;28;20475;-77
2023/07/04 14:38:54;;;;;;;9.10;4.43;;;;;;;;;;5016473;28;20451;-78
2023/07/04 14:41:21;;;;;;;4.90;3.70;;;;;;;;;;5015537;28;20459;-79
2023/07/04 14:43:49;;;;;;;6.40;4.63;;;;;;;;;;5016167;28;20432;-78
2023/07/04 14:46:16;;;;;;;6.33;3.70;;;;;;;;;;5016436;28;20420;-78
2023/07/04 14:48:43;;;;;;;5.90;4.10;;;;;;;;;;5016900;28;20499;-79
2023/07/04 14:51:11;;;;;;;7.00;4.20;;;;;;;;;;5013492;28;20436;-81